Toguchin, Russia
Current Conditions -  °F | °C
As of 7:00 PM on Sunday 25 Jan 2015 (Local Time) from UNNT Reporting Station
Few Clouds Few Clouds  
Wind Chill: -37°   Ceiling: Unl
Heat Index: -24°   Visibility: 6mi
Dew Point: -31°   Wind: 4mph
Humidity: 69%   Direction: 160°SSE
Pressure: 31.04"   Gusts: NA
Location:  55.24°N, 84.39°E
Report Text: UNNT 251200Z 16002MPS 9000 FEW230 M31/M35 Q1051 0781016016810160 NOSIG RMK QFE778/1037
Loading
Personal Weather Stations






























Interactive Weather Map New forecast layout! Learn more

10-Day Weather Forecast

Advertisements
Track Severe Weather on mobile